Time;durP1;ratioP1;P1;durP2;ratioP2;P2;SDS_P1;SDS_P2;PMS_P1;PMS_P2;Temp;Humidity;BMP_temperature;BMP_pressure;BME280_temperature;BME280_humidity;BME280_pressure;Samples;Min_cycle;Max_cycle;Signal;HPM_P1;HPM_P2
2023/12/31 00:02:06;;;;;;;0.30;0.30;;;10.60;84.70;;;;;;5048982;28;20063;-73
2023/12/31 00:04:32;;;;;;;0.82;0.73;;;10.60;84.70;;;;;;5053141;28;20072;-73
2023/12/31 00:06:58;;;;;;;0.55;0.38;;;10.60;84.60;;;;;;5053894;28;20083;-73
2023/12/31 00:09:23;;;;;;;0.40;0.30;;;10.60;84.60;;;;;;5042127;28;20036;-73
2023/12/31 00:11:49;;;;;;;1.42;0.98;;;10.60;84.60;;;;;;5046022;28;20029;-72
2023/12/31 00:14:15;;;;;;;0.55;0.40;;;10.60;84.60;;;;;;5045548;28;20131;-73
2023/12/31 00:16:40;;;;;;;0.65;0.60;;;10.60;84.70;;;;;;5042148;28;20083;-73
2023/12/31 00:19:06;;;;;;;0.60;0.45;;;10.50;84.70;;;;;;5056237;28;20041;-72
2023/12/31 00:21:32;;;;;;;0.75;0.68;;;10.50;84.80;;;;;;5049384;28;20041;-72
2023/12/31 00:23:57;;;;;;;0.50;0.35;;;10.50;84.90;;;;;;5049569;28;20094;-72
2023/12/31 00:26:23;;;;;;;1.00;0.60;;;10.40;84.90;;;;;;5055776;28;20090;-72
2023/12/31 00:28:49;;;;;;;3.00;1.08;;;10.40;85.00;;;;;;5052064;28;20048;-72
2023/12/31 00:31:14;;;;;;;3.80;2.10;;;10.40;85.00;;;;;;5051859;28;20021;-72
2023/12/31 00:33:40;;;;;;;3.42;1.85;;;10.50;85.10;;;;;;5034854;28;20028;-72
2023/12/31 00:36:06;;;;;;;4.70;1.33;;;10.50;85.00;;;;;;5054395;28;20049;-72
2023/12/31 00:38:31;;;;;;;3.08;1.48;;;10.50;85.00;;;;;;5054480;28;20044;-72
2023/12/31 00:40:57;;;;;;;3.35;1.10;;;10.60;84.80;;;;;;5055550;28;20484;-72
2023/12/31 00:43:23;;;;;;;7.63;1.23;;;10.60;84.70;;;;;;5051317;28;20041;-63
2023/12/31 00:45:48;;;;;;;0.93;0.40;;;10.60;84.70;;;;;;5046809;28;20060;-63
2023/12/31 00:48:14;;;;;;;0.85;0.60;;;10.70;84.60;;;;;;5051997;28;20075;-63
2023/12/31 00:50:40;;;;;;;0.28;0.28;;;10.70;84.50;;;;;;5048993;28;20036;-62
2023/12/31 00:53:05;;;;;;;0.73;0.20;;;10.70;84.30;;;;;;5057100;28;20553;-62
2023/12/31 00:55:31;;;;;;;0.63;0.30;;;10.70;84.30;;;;;;5056589;28;20972;-63
2023/12/31 00:57:57;;;;;;;0.30;0.22;;;10.80;84.30;;;;;;5056377;28;20021;-63
2023/12/31 01:00:22;;;;;;;0.30;0.20;;;10.80;84.30;;;;;;5054079;28;20087;-62
2023/12/31 01:02:48;;;;;;;1.85;0.65;;;10.80;84.10;;;;;;5052908;28;20732;-63
2023/12/31 01:05:14;;;;;;;0.63;0.28;;;10.80;84.10;;;;;;5051174;28;20036;-62
2023/12/31 01:07:39;;;;;;;0.30;0.30;;;10.80;84.10;;;;;;5057770;28;20379;-63
2023/12/31 01:10:06;;;;;;;0.47;0.47;;;10.80;84.00;;;;;;5054555;28;20546;-63
2023/12/31 01:12:32;;;;;;;0.40;0.30;;;10.80;83.90;;;;;;5059953;28;20582;-63
2023/12/31 01:14:58;;;;;;;3.13;0.32;;;10.80;83.80;;;;;;5050232;28;20036;-63
2023/12/31 01:17:24;;;;;;;0.52;0.20;;;10.80;83.70;;;;;;5037364;28;20396;-63
2023/12/31 01:19:49;;;;;;;0.35;0.30;;;10.80;83.70;;;;;;5049214;28;20396;-63
2023/12/31 01:22:15;;;;;;;0.35;0.30;;;10.90;83.60;;;;;;5064043;28;20115;-63
2023/12/31 01:24:40;;;;;;;0.32;0.32;;;10.80;83.40;;;;;;5054713;28;20025;-63
2023/12/31 01:27:06;;;;;;;0.50;0.43;;;10.90;83.50;;;;;;5054907;28;20028;-63
2023/12/31 01:29:33;;;;;;;1.13;0.20;;;10.90;83.40;;;;;;5055538;28;20138;-63
2023/12/31 01:31:59;;;;;;;0.40;0.40;;;10.90;83.30;;;;;;5040834;28;20026;-62
2023/12/31 01:34:25;;;;;;;0.95;0.20;;;10.90;83.20;;;;;;5055899;28;20037;-63
2023/12/31 01:36:51;;;;;;;0.77;0.43;;;10.90;83.20;;;;;;5054668;28;20090;-63
2023/12/31 01:39:16;;;;;;;1.27;0.20;;;10.90;83.20;;;;;;5058027;28;20037;-62
2023/12/31 01:41:42;;;;;;;2.53;0.50;;;11.00;83.20;;;;;;5050895;28;20039;-62
2023/12/31 01:44:08;;;;;;;0.20;0.20;;;11.00;83.20;;;;;;5053923;28;20033;-62
2023/12/31 01:46:35;;;;;;;0.25;0.20;;;10.90;83.20;;;;;;5054204;28;20107;-63
2023/12/31 01:49:01;;;;;;;0.30;0.30;;;10.90;83.20;;;;;;5049244;28;20061;-62
2023/12/31 01:51:29;;;;;;;0.28;0.28;;;10.90;83.20;;;;;;5058464;28;20085;-63
2023/12/31 01:53:58;;;;;;;0.50;0.40;;;10.80;83.10;;;;;;5054963;28;20479;-72
2023/12/31 01:56:25;;;;;;;0.68;0.38;;;10.80;83.10;;;;;;5046264;28;20025;-62
2023/12/31 01:58:52;;;;;;;0.30;0.30;;;10.90;83.20;;;;;;5054276;28;20104;-72
2023/12/31 02:01:18;;;;;;;0.43;0.43;;;10.90;83.20;;;;;;5060277;28;20027;-72
2023/12/31 02:03:44;;;;;;;0.60;0.40;;;10.80;83.10;;;;;;5052256;28;20551;-73
2023/12/31 02:06:09;;;;;;;0.73;0.52;;;10.90;83.00;;;;;;5050382;28;20124;-72
2023/12/31 02:08:36;;;;;;;0.45;0.30;;;10.80;83.00;;;;;;5050764;28;20025;-72
2023/12/31 02:11:03;;;;;;;0.30;0.22;;;10.80;83.00;;;;;;5058659;28;20411;-72
2023/12/31 02:13:28;;;;;;;0.68;0.30;;;10.80;82.90;;;;;;5053927;28;20057;-72
2023/12/31 02:15:54;;;;;;;0.40;0.40;;;10.80;82.90;;;;;;5058729;28;20037;-72
2023/12/31 02:18:20;;;;;;;0.80;0.47;;;10.90;82.90;;;;;;5053565;28;20037;-72
2023/12/31 02:20:45;;;;;;;0.30;0.30;;;10.90;82.80;;;;;;5051545;28;20040;-72
2023/12/31 02:23:11;;;;;;;0.45;0.40;;;10.80;82.70;;;;;;5057592;28;20033;-73
2023/12/31 02:25:43;;;;;;;0.40;0.40;;;10.80;82.70;;;;;;5050154;28;20036;-72
2023/12/31 02:28:12;;;;;;;0.50;0.50;;;10.80;82.80;;;;;;5053327;28;20064;-62
2023/12/31 02:30:37;;;;;;;0.47;0.30;;;10.80;82.80;;;;;;5053173;28;20063;-63
2023/12/31 02:33:03;;;;;;;0.30;0.30;;;10.80;82.80;;;;;;5054637;28;20467;-63
2023/12/31 02:35:28;;;;;;;0.47;0.30;;;10.80;82.70;;;;;;5051447;28;20036;-72
2023/12/31 02:37:54;;;;;;;0.82;0.50;;;10.80;82.70;;;;;;5056119;28;20396;-73
2023/12/31 02:40:20;;;;;;;0.57;0.35;;;10.80;82.70;;;;;;5053598;28;20134;-72
2023/12/31 02:42:46;;;;;;;0.80;0.43;;;10.80;82.70;;;;;;5049545;28;20097;-72
2023/12/31 02:45:12;;;;;;;0.50;0.40;;;10.80;82.70;;;;;;5031838;28;20056;-72
2023/12/31 02:47:37;;;;;;;1.55;0.55;;;10.70;82.70;;;;;;5051648;28;20029;-63
2023/12/31 02:50:04;;;;;;;1.88;0.70;;;10.70;82.70;;;;;;5048149;28;20033;-63
2023/12/31 02:52:30;;;;;;;4.40;0.68;;;10.70;82.80;;;;;;5053824;28;20029;-62
2023/12/31 02:54:56;;;;;;;0.60;0.40;;;10.70;82.80;;;;;;5048220;28;20031;-63
2023/12/31 02:57:22;;;;;;;1.25;0.65;;;10.60;82.80;;;;;;5048892;28;20379;-63
2023/12/31 02:59:48;;;;;;;0.70;0.50;;;10.60;82.90;;;;;;5051107;28;20043;-62
2023/12/31 03:02:14;;;;;;;0.50;0.50;;;10.60;82.80;;;;;;5050488;28;20119;-63
2023/12/31 03:04:40;;;;;;;0.47;0.30;;;10.60;82.80;;;;;;5052371;28;20135;-63
2023/12/31 03:07:06;;;;;;;0.35;0.35;;;10.70;82.80;;;;;;5056751;28;20032;-62
2023/12/31 03:09:32;;;;;;;0.70;0.45;;;10.60;82.70;;;;;;5055811;28;20029;-63
2023/12/31 03:11:57;;;;;;;0.75;0.32;;;10.60;82.70;;;;;;5053921;28;20051;-63
2023/12/31 03:14:23;;;;;;;3.15;0.40;;;10.60;82.60;;;;;;5057652;28;20040;-72
2023/12/31 03:16:49;;;;;;;1.35;0.63;;;10.70;82.70;;;;;;5055189;28;20400;-73
2023/12/31 03:19:15;;;;;;;1.30;0.65;;;10.60;82.60;;;;;;5049784;28;20125;-72
2023/12/31 03:21:41;;;;;;;0.30;0.30;;;10.60;82.50;;;;;;5053028;28;20108;-72
2023/12/31 03:24:08;;;;;;;1.77;0.57;;;10.60;82.50;;;;;;5039745;28;20128;-72
2023/12/31 03:26:34;;;;;;;0.50;0.50;;;10.60;82.40;;;;;;5053562;28;20044;-72
2023/12/31 03:29:00;;;;;;;0.30;0.30;;;10.70;82.30;;;;;;5054265;28;20036;-72
2023/12/31 03:31:26;;;;;;;0.30;0.30;;;10.70;82.10;;;;;;5038382;28;20385;-71
2023/12/31 03:33:52;;;;;;;1.85;0.35;;;10.70;81.90;;;;;;5054137;28;20051;-72
2023/12/31 03:36:18;;;;;;;0.88;0.40;;;10.70;81.90;;;;;;5052868;28;20028;-72
2023/12/31 03:38:44;;;;;;;0.40;0.40;;;10.70;82.00;;;;;;5056996;28;20451;-72
2023/12/31 03:41:09;;;;;;;0.40;0.40;;;10.70;81.80;;;;;;5059162;28;20483;-72
2023/12/31 03:43:35;;;;;;;0.30;0.30;;;10.70;81.70;;;;;;5051238;28;20021;-72
2023/12/31 03:46:01;;;;;;;2.67;0.80;;;10.70;81.60;;;;;;5050208;28;20040;-72
2023/12/31 03:48:27;;;;;;;0.52;0.40;;;10.70;81.60;;;;;;5051985;28;20112;-72
2023/12/31 03:50:52;;;;;;;1.45;0.52;;;10.70;81.50;;;;;;5056293;28;20546;-71
2023/12/31 03:53:18;;;;;;;1.30;0.30;;;10.70;81.40;;;;;;5048928;28;20404;-72
2023/12/31 03:55:44;;;;;;;1.92;0.40;;;10.70;81.40;;;;;;5053886;28;20033;-71
2023/12/31 03:58:10;;;;;;;1.77;0.50;;;10.70;81.30;;;;;;5057861;28;20049;-72
2023/12/31 04:00:35;;;;;;;0.57;0.35;;;10.70;81.40;;;;;;5054925;28;20102;-72
2023/12/31 04:03:02;;;;;;;0.77;0.60;;;10.70;81.20;;;;;;5032545;28;20040;-71
2023/12/31 04:05:29;;;;;;;0.82;0.32;;;10.70;81.30;;;;;;5049264;28;20029;-71
2023/12/31 04:07:55;;;;;;;1.08;0.35;;;10.70;81.10;;;;;;5049277;28;20028;-72
2023/12/31 04:10:21;;;;;;;2.00;0.80;;;10.70;81.10;;;;;;5054272;28;20025;-72
2023/12/31 04:12:46;;;;;;;1.02;0.70;;;10.70;81.00;;;;;;5047707;28;20503;-72
2023/12/31 04:15:12;;;;;;;0.47;0.40;;;10.70;81.00;;;;;;5056348;28;20054;-72
2023/12/31 04:17:38;;;;;;;0.47;0.47;;;10.60;80.90;;;;;;5050380;28;20032;-71
2023/12/31 04:20:04;;;;;;;0.50;0.50;;;10.70;81.00;;;;;;5048078;28;20033;-72
2023/12/31 04:22:30;;;;;;;0.35;0.28;;;10.70;80.80;;;;;;5051500;28;20039;-72
2023/12/31 04:24:56;;;;;;;1.95;0.30;;;10.60;80.80;;;;;;5050616;28;20025;-72
2023/12/31 04:27:21;;;;;;;1.98;0.45;;;10.70;80.70;;;;;;5050875;28;20068;-72
2023/12/31 04:29:47;;;;;;;0.60;0.40;;;10.70;80.60;;;;;;5054542;28;20041;-72
2023/12/31 04:32:13;;;;;;;2.40;0.52;;;10.70;80.50;;;;;;5054917;28;20059;-71
2023/12/31 04:34:38;;;;;;;0.32;0.32;;;10.70;80.60;;;;;;5047430;28;20029;-72
2023/12/31 04:37:04;;;;;;;0.93;0.63;;;10.70;80.60;;;;;;5049978;28;20029;-71
2023/12/31 04:39:30;;;;;;;0.50;0.40;;;10.70;80.60;;;;;;5052961;28;20029;-72
2023/12/31 04:41:56;;;;;;;0.57;0.40;;;10.70;80.50;;;;;;5050423;28;20156;-71
2023/12/31 04:44:21;;;;;;;0.55;0.40;;;10.80;80.60;;;;;;5051300;28;20041;-71
2023/12/31 04:46:47;;;;;;;0.35;0.35;;;10.70;80.40;;;;;;5048065;28;20029;-72
2023/12/31 04:49:14;;;;;;;0.75;0.32;;;10.80;80.50;;;;;;5047080;28;20514;-71
2023/12/31 04:51:40;;;;;;;1.95;0.55;;;10.70;80.50;;;;;;5052047;28;20048;-72
2023/12/31 04:54:06;;;;;;;1.08;0.50;;;10.70;80.50;;;;;;5034220;28;20083;-72
2023/12/31 04:56:32;;;;;;;0.70;0.38;;;10.70;80.60;;;;;;5049606;28;20021;-72
2023/12/31 04:58:58;;;;;;;0.82;0.40;;;10.70;80.50;;;;;;5034336;28;20028;-72
2023/12/31 05:01:31;;;;;;;0.75;0.40;;;10.70;80.50;;;;;;5046060;28;20521;-72
2023/12/31 05:03:58;;;;;;;2.22;0.43;;;10.70;80.60;;;;;;5043888;28;20496;-72
2023/12/31 05:06:24;;;;;;;1.15;0.50;;;10.70;80.50;;;;;;5049489;28;20036;-72
2023/12/31 05:08:50;;;;;;;1.52;0.50;;;10.70;80.60;;;;;;5054122;28;20438;-72
2023/12/31 05:11:17;;;;;;;1.25;0.60;;;10.70;80.70;;;;;;5053815;28;20021;-72
2023/12/31 05:13:43;;;;;;;0.98;0.60;;;10.70;80.70;;;;;;5047207;28;20414;-62
2023/12/31 05:16:13;;;;;;;0.35;0.35;;;10.70;80.60;;;;;;5053790;28;20481;-62
2023/12/31 05:18:40;;;;;;;1.10;0.77;;;10.60;80.50;;;;;;5047043;28;20040;-62
2023/12/31 05:21:05;;;;;;;0.40;0.40;;;10.60;80.60;;;;;;5052237;28;20332;-62
2023/12/31 05:23:31;;;;;;;1.20;0.57;;;10.60;80.60;;;;;;5046856;28;20535;-63
2023/12/31 05:25:57;;;;;;;0.63;0.60;;;10.60;80.70;;;;;;5050099;28;20032;-62
2023/12/31 05:28:23;;;;;;;0.73;0.40;;;10.60;80.80;;;;;;5051530;28;20483;-63
2023/12/31 05:30:48;;;;;;;2.78;0.55;;;10.60;80.80;;;;;;5050804;28;20021;-63
2023/12/31 05:33:14;;;;;;;0.80;0.65;;;10.60;81.30;;;;;;5047337;28;20114;-63
2023/12/31 05:35:40;;;;;;;1.42;0.65;;;10.60;80.80;;;;;;5049091;28;20048;-63
2023/12/31 05:38:06;;;;;;;0.30;0.30;;;10.60;80.80;;;;;;5057721;28;20070;-62
2023/12/31 05:40:31;;;;;;;0.65;0.40;;;10.60;80.90;;;;;;5054667;28;20032;-63
2023/12/31 05:42:57;;;;;;;1.15;0.63;;;10.60;81.00;;;;;;5045776;28;20036;-72
2023/12/31 05:45:23;;;;;;;0.68;0.60;;;10.60;80.90;;;;;;5047293;28;20148;-72
2023/12/31 05:47:48;;;;;;;1.20;0.80;;;10.70;81.00;;;;;;5042496;28;20025;-63
2023/12/31 05:50:15;;;;;;;1.38;0.65;;;10.70;81.00;;;;;;5022647;28;20021;-63
2023/12/31 05:52:41;;;;;;;1.77;1.17;;;10.70;81.00;;;;;;5048134;28;20067;-63
2023/12/31 05:55:07;;;;;;;0.60;0.60;;;10.70;81.00;;;;;;5052086;28;20021;-62
2023/12/31 05:57:32;;;;;;;1.70;0.80;;;10.70;81.00;;;;;;5053197;28;20040;-63
2023/12/31 06:00:00;;;;;;;2.03;0.70;;;10.80;81.00;;;;;;5052720;28;20028;-62
2023/12/31 06:02:26;;;;;;;0.70;0.70;;;10.70;81.00;;;;;;5057019;28;20542;-62
2023/12/31 06:04:51;;;;;;;1.05;0.90;;;10.70;81.10;;;;;;5050482;28;20017;-63
2023/12/31 06:07:17;;;;;;;1.08;0.60;;;10.80;81.10;;;;;;5059483;28;20467;-62
2023/12/31 06:09:43;;;;;;;0.60;0.50;;;10.80;81.10;;;;;;5054776;28;20048;-62
2023/12/31 06:12:08;;;;;;;1.70;0.77;;;10.80;81.00;;;;;;5058618;28;20059;-62
2023/12/31 06:14:34;;;;;;;2.00;0.70;;;10.90;81.00;;;;;;5054029;28;20037;-62
2023/12/31 06:17:00;;;;;;;1.42;1.08;;;10.90;80.90;;;;;;5053047;28;20033;-73
2023/12/31 06:19:25;;;;;;;1.20;0.93;;;10.90;80.90;;;;;;5050738;28;20356;-73
2023/12/31 06:21:51;;;;;;;1.08;0.98;;;10.90;80.80;;;;;;5055678;28;20119;-73
2023/12/31 06:24:17;;;;;;;1.25;0.70;;;11.00;80.80;;;;;;5054670;28;20115;-73
2023/12/31 06:26:43;;;;;;;0.82;0.77;;;10.90;80.80;;;;;;5057918;28;20145;-73
2023/12/31 06:29:08;;;;;;;1.75;0.90;;;11.00;80.80;;;;;;5048767;28;20051;-74
2023/12/31 06:31:34;;;;;;;0.98;0.70;;;11.00;80.90;;;;;;5051959;28;20021;-63
2023/12/31 06:34:00;;;;;;;1.08;0.68;;;11.00;80.80;;;;;;5054809;28;20025;-62
2023/12/31 06:36:25;;;;;;;1.42;1.00;;;11.00;80.80;;;;;;5048745;28;20040;-62
2023/12/31 06:38:51;;;;;;;2.58;1.27;;;10.90;80.50;;;;;;5055577;28;20124;-62
2023/12/31 06:41:19;;;;;;;1.38;0.80;;;11.00;80.60;;;;;;5056281;28;20028;-62
2023/12/31 06:43:45;;;;;;;1.05;1.00;;;11.00;80.50;;;;;;5058591;28;20776;-62
2023/12/31 06:46:11;;;;;;;2.78;1.05;;;11.00;80.40;;;;;;5057525;28;20111;-73
2023/12/31 06:48:37;;;;;;;1.38;0.98;;;11.00;80.40;;;;;;5047604;28;20017;-73
2023/12/31 06:51:03;;;;;;;1.80;1.20;;;11.00;80.50;;;;;;5054767;28;20029;-73
2023/12/31 06:53:29;;;;;;;2.05;1.02;;;11.00;80.50;;;;;;5051648;28;20036;-73
2023/12/31 06:55:55;;;;;;;1.75;1.05;;;11.00;80.40;;;;;;5049786;28;20025;-74
2023/12/31 06:58:20;;;;;;;1.23;0.70;;;11.00;80.40;;;;;;5059507;28;20055;-73
2023/12/31 07:00:46;;;;;;;1.98;0.80;;;10.90;80.40;;;;;;5057009;28;20033;-73
2023/12/31 07:03:12;;;;;;;0.80;0.60;;;10.90;80.50;;;;;;5053648;28;20522;-73
2023/12/31 07:05:37;;;;;;;1.33;0.98;;;10.90;80.50;;;;;;5057484;28;20082;-73
2023/12/31 07:08:03;;;;;;;1.35;0.80;;;10.90;80.50;;;;;;5056050;28;20060;-73
2023/12/31 07:10:29;;;;;;;4.03;1.40;;;10.90;80.40;;;;;;5051322;28;20033;-73
2023/12/31 07:12:55;;;;;;;1.77;1.20;;;10.90;80.40;;;;;;5045791;28;20444;-74
2023/12/31 07:15:21;;;;;;;1.42;0.88;;;10.90;80.40;;;;;;5050914;28;20029;-72
2023/12/31 07:17:47;;;;;;;1.67;1.40;;;10.90;80.40;;;;;;5044833;28;20033;-72
2023/12/31 07:20:13;;;;;;;1.75;1.02;;;10.90;80.40;;;;;;5052469;28;20664;-62
2023/12/31 07:22:38;;;;;;;1.30;0.77;;;10.90;80.40;;;;;;5054557;28;20029;-62
2023/12/31 07:25:05;;;;;;;1.77;1.05;;;10.90;80.30;;;;;;5053120;28;20029;-63
2023/12/31 07:27:31;;;;;;;1.50;1.00;;;11.00;80.30;;;;;;5049005;28;20464;-63
2023/12/31 07:29:57;;;;;;;1.10;0.93;;;11.00;80.30;;;;;;5055433;28;20082;-63
2023/12/31 07:32:22;;;;;;;1.65;0.80;;;11.00;80.20;;;;;;5050541;28;20021;-64
2023/12/31 07:34:48;;;;;;;0.73;0.73;;;10.90;80.20;;;;;;5052557;28;20044;-63
2023/12/31 07:37:13;;;;;;;2.40;1.02;;;10.90;80.20;;;;;;5053357;28;20468;-63
2023/12/31 07:39:42;;;;;;;1.17;1.05;;;10.90;80.20;;;;;;5051255;28;20125;-63
2023/12/31 07:42:08;;;;;;;2.53;0.68;;;11.00;80.30;;;;;;5049712;28;20503;-63
2023/12/31 07:44:34;;;;;;;1.90;1.00;;;10.90;80.30;;;;;;5053052;28;20056;-62
2023/12/31 07:46:59;;;;;;;0.95;0.85;;;11.00;80.20;;;;;;5052861;28;20059;-63
2023/12/31 07:49:25;;;;;;;1.60;1.17;;;11.00;80.20;;;;;;5052755;28;20171;-62
2023/12/31 07:51:51;;;;;;;1.38;1.17;;;11.00;80.10;;;;;;5050239;28;20041;-62
2023/12/31 07:54:17;;;;;;;0.68;0.65;;;11.00;80.10;;;;;;5046062;28;20118;-63
2023/12/31 07:56:42;;;;;;;1.83;1.00;;;11.00;80.10;;;;;;5053685;28;20024;-63
2023/12/31 07:59:08;;;;;;;1.10;0.93;;;11.10;80.10;;;;;;5051693;28;20064;-65
2023/12/31 08:01:34;;;;;;;1.25;0.50;;;11.00;80.50;;;;;;5051100;28;20542;-65
2023/12/31 08:04:00;;;;;;;0.75;0.75;;;11.00;80.00;;;;;;5056361;28;20063;-63
2023/12/31 08:06:26;;;;;;;1.88;0.70;;;11.00;80.00;;;;;;5056272;28;20130;-64
2023/12/31 08:08:52;;;;;;;1.50;0.85;;;11.00;80.10;;;;;;5053600;28;20492;-63
2023/12/31 08:11:20;;;;;;;1.95;1.42;;;11.00;80.10;;;;;;5047450;28;20120;-62
2023/12/31 08:13:46;;;;;;;1.67;0.98;;;11.00;80.20;;;;;;5059581;28;20535;-63
2023/12/31 08:16:12;;;;;;;1.52;1.30;;;11.00;80.30;;;;;;5051939;28;20029;-63
2023/12/31 08:18:38;;;;;;;0.75;0.75;;;11.10;80.40;;;;;;5047729;28;20044;-63
2023/12/31 08:21:04;;;;;;;1.70;0.88;;;11.00;80.40;;;;;;5051833;28;20495;-64
2023/12/31 08:23:30;;;;;;;1.60;1.10;;;11.10;80.50;;;;;;5048017;28;20064;-63
2023/12/31 08:25:56;;;;;;;0.95;0.95;;;11.10;80.50;;;;;;5050528;28;20025;-64
2023/12/31 08:28:22;;;;;;;1.38;0.80;;;11.10;80.60;;;;;;5052927;28;20108;-63
2023/12/31 08:30:48;;;;;;;1.40;0.90;;;11.00;80.50;;;;;;5051413;28;20124;-64
2023/12/31 08:33:14;;;;;;;1.63;0.90;;;11.00;80.60;;;;;;5048068;28;20078;-63
2023/12/31 08:35:41;;;;;;;2.00;1.30;;;11.10;80.60;;;;;;5047528;28;20033;-63
2023/12/31 08:38:07;;;;;;;0.77;0.77;;;11.10;80.60;;;;;;5052244;28;20032;-73
2023/12/31 08:40:33;;;;;;;2.17;0.80;;;11.10;81.20;;;;;;5044055;28;20403;-73
2023/12/31 08:42:59;;;;;;;0.80;0.80;;;11.10;81.10;;;;;;5062240;28;20032;-72
2023/12/31 08:45:24;;;;;;;1.27;1.00;;;11.20;80.60;;;;;;5051986;28;20041;-72
2023/12/31 08:47:52;;;;;;;1.98;1.25;;;11.20;80.50;;;;;;5048914;28;20083;-64
2023/12/31 08:50:18;;;;;;;1.73;0.88;;;11.20;80.60;;;;;;5046778;28;20415;-62
2023/12/31 08:52:46;;;;;;;6.50;1.48;;;11.30;80.70;;;;;;5029270;28;20033;-62
2023/12/31 08:55:12;;;;;;;1.25;0.75;;;11.20;80.70;;;;;;5049850;28;20037;-62
2023/12/31 08:57:47;;;;;;;5.10;1.45;;;11.30;80.70;;;;;;5049632;28;20045;-62
2023/12/31 09:00:13;;;;;;;2.88;1.38;;;11.30;80.60;;;;;;5049786;28;20028;-60
2023/12/31 09:02:39;;;;;;;1.38;1.00;;;11.30;80.70;;;;;;5045265;28;20137;-60
2023/12/31 09:05:06;;;;;;;0.95;0.85;;;11.30;80.70;;;;;;5054650;28;20131;-60
2023/12/31 09:07:34;;;;;;;1.42;1.10;;;11.30;80.70;;;;;;5049038;28;20087;-60
2023/12/31 09:10:02;;;;;;;1.05;0.98;;;11.40;80.70;;;;;;5044758;28;20048;-61
2023/12/31 09:12:31;;;;;;;1.67;0.93;;;11.40;80.70;;;;;;5053290;28;20460;-60
2023/12/31 09:14:57;;;;;;;1.48;0.93;;;11.40;80.90;;;;;;5054540;28;20086;-61
2023/12/31 09:17:23;;;;;;;1.05;0.77;;;11.40;81.10;;;;;;5051134;28;20091;-63
2023/12/31 09:19:49;;;;;;;0.93;0.80;;;11.40;81.20;;;;;;5055136;28;20024;-61
2023/12/31 09:22:14;;;;;;;2.40;1.20;;;11.40;81.20;;;;;;5055614;28;20060;-60
2023/12/31 09:24:40;;;;;;;1.45;1.02;;;11.40;81.10;;;;;;5055140;28;20503;-61
2023/12/31 09:27:08;;;;;;;2.05;0.93;;;11.40;81.00;;;;;;5048600;28;20471;-60
2023/12/31 09:29:35;;;;;;;1.95;1.00;;;11.50;81.00;;;;;;5050113;28;20061;-61
2023/12/31 09:32:03;;;;;;;1.52;1.02;;;11.50;80.80;;;;;;5048313;28;20053;-61
2023/12/31 09:34:29;;;;;;;1.40;1.13;;;11.50;80.70;;;;;;5044305;28;20473;-61
2023/12/31 09:36:54;;;;;;;2.13;0.90;;;11.50;80.60;;;;;;5043027;28;20194;-61
2023/12/31 09:39:20;;;;;;;2.85;1.17;;;11.60;80.60;;;;;;5045383;28;20392;-61
2023/12/31 09:41:50;;;;;;;1.00;0.73;;;11.60;80.50;;;;;;5040420;28;20716;-62
2023/12/31 09:44:19;;;;;;;2.33;1.25;;;11.70;80.70;;;;;;5040918;28;20029;-61
2023/12/31 09:47:04;;;;;;;1.67;1.08;;;11.60;80.70;;;;;;5045622;28;20029;-61
2023/12/31 09:49:31;;;;;;;1.27;1.17;;;11.60;80.60;;;;;;5049991;28;20024;-62
2023/12/31 09:52:00;;;;;;;1.85;1.23;;;11.60;80.60;;;;;;5041674;28;20040;-72
2023/12/31 09:54:26;;;;;;;3.03;1.42;;;11.60;80.50;;;;;;5029312;28;20059;-72
2023/12/31 09:56:52;;;;;;;1.63;1.05;;;11.70;80.50;;;;;;5047777;28;20053;-72
2023/12/31 09:59:20;;;;;;;2.10;1.15;;;11.70;80.50;;;;;;5038744;28;20056;-72
2023/12/31 10:01:46;;;;;;;1.52;1.08;;;11.70;80.50;;;;;;5050891;28;20028;-72
2023/12/31 10:04:12;;;;;;;2.65;1.20;;;11.70;80.60;;;;;;5049620;28;20028;-72
2023/12/31 10:06:39;;;;;;;2.00;0.90;;;11.70;80.60;;;;;;5047416;28;20017;-71
2023/12/31 10:09:07;;;;;;;1.10;0.70;;;11.80;80.70;;;;;;5045285;28;20021;-72
2023/12/31 10:11:33;;;;;;;1.55;0.95;;;11.80;80.50;;;;;;5050001;28;20112;-72
2023/12/31 10:13:59;;;;;;;2.60;0.80;;;11.80;80.30;;;;;;5030571;28;20132;-72
2023/12/31 10:16:34;;;;;;;1.60;0.93;;;11.80;80.00;;;;;;5037914;28;20037;-72
2023/12/31 10:19:00;;;;;;;1.35;0.70;;;11.90;80.10;;;;;;5042090;28;20037;-73
2023/12/31 10:21:26;;;;;;;1.67;0.70;;;11.90;79.60;;;;;;5037886;28;20041;-71
2023/12/31 10:23:52;;;;;;;1.42;0.40;;;11.90;79.40;;;;;;5036484;28;20591;-72
2023/12/31 10:26:18;;;;;;;0.60;0.57;;;12.00;79.40;;;;;;5029412;28;20481;-72
2023/12/31 10:28:43;;;;;;;1.50;0.50;;;12.00;79.40;;;;;;5050106;28;20036;-72
2023/12/31 10:31:10;;;;;;;0.80;0.52;;;12.00;79.20;;;;;;5039369;28;20025;-72
2023/12/31 10:33:37;;;;;;;1.35;0.65;;;12.00;79.40;;;;;;5051020;28;20451;-62
2023/12/31 10:36:04;;;;;;;0.47;0.40;;;12.00;79.30;;;;;;5050231;28;20040;-62
2023/12/31 10:38:43;;;;;;;3.15;0.63;;;11.90;79.60;;;;;;5050067;28;20033;-62
2023/12/31 10:41:10;;;;;;;0.88;0.60;;;12.00;79.70;;;;;;5037550;28;20044;-61
2023/12/31 10:43:40;;;;;;;1.55;0.80;;;12.00;79.70;;;;;;5030801;28;20120;-62
2023/12/31 10:46:07;;;;;;;0.45;0.43;;;12.00;79.60;;;;;;5031656;28;20041;-62
2023/12/31 10:48:34;;;;;;;0.90;0.63;;;12.00;79.50;;;;;;5038467;28;20037;-61
2023/12/31 10:51:05;;;;;;;1.15;0.60;;;12.00;79.40;;;;;;5041506;28;20029;-61
2023/12/31 10:53:37;;;;;;;1.20;0.52;;;12.00;79.00;;;;;;5046371;28;20114;-61
2023/12/31 10:56:05;;;;;;;0.30;0.30;;;11.90;78.70;;;;;;5058233;28;20108;-62
2023/12/31 10:58:31;;;;;;;0.95;0.63;;;11.90;78.50;;;;;;5049399;28;20052;-62
2023/12/31 11:00:58;;;;;;;0.35;0.35;;;12.00;78.40;;;;;;5046452;28;20068;-62
2023/12/31 11:03:26;;;;;;;1.77;0.82;;;12.00;78.40;;;;;;5038066;28;20061;-71
2023/12/31 11:05:52;;;;;;;0.85;0.85;;;12.10;78.40;;;;;;5045810;28;20455;-61
2023/12/31 11:08:21;;;;;;;0.88;0.43;;;12.10;78.30;;;;;;5049005;28;20048;-71
2023/12/31 11:10:46;;;;;;;1.02;0.50;;;12.10;78.20;;;;;;5053249;28;20051;-70
2023/12/31 11:13:15;;;;;;;0.55;0.50;;;12.10;78.50;;;;;;5055696;28;20425;-71
2023/12/31 11:15:42;;;;;;;0.50;0.40;;;12.00;78.40;;;;;;5046087;28;20067;-70
2023/12/31 11:18:22;;;;;;;1.20;0.80;;;12.00;78.80;;;;;;5048349;28;20033;-71
2023/12/31 11:21:22;;;;;;;0.80;0.52;;;11.90;79.20;;;;;;5052171;28;20082;-71
2023/12/31 11:24:26;;;;;;;0.50;0.40;;;11.90;79.30;;;;;;5046925;28;20025;-60
2023/12/31 11:27:04;;;;;;;0.40;0.40;;;11.80;79.70;;;;;;5044915;28;20492;-60
2023/12/31 11:29:29;;;;;;;0.57;0.30;;;12.00;79.80;;;;;;5047695;28;20522;-60
2023/12/31 11:31:55;;;;;;;0.35;0.30;;;12.10;79.50;;;;;;5040951;28;20025;-60
2023/12/31 11:34:21;;;;;;;1.30;0.40;;;12.10;79.30;;;;;;5049286;28;20404;-60
2023/12/31 11:36:46;;;;;;;0.30;0.30;;;12.10;79.20;;;;;;5052810;28;20387;-61
2023/12/31 11:39:16;;;;;;;0.20;0.20;;;12.10;79.30;;;;;;5049207;28;20114;-61
2023/12/31 11:41:50;;;;;;;0.73;0.50;;;12.00;79.20;;;;;;5044281;28;20186;-62
2023/12/31 11:44:36;;;;;;;0.50;0.40;;;12.10;79.20;;;;;;5035947;28;20030;-61
2023/12/31 11:47:02;;;;;;;1.00;0.57;;;12.10;78.90;;;;;;5035066;28;20029;-62
2023/12/31 11:49:27;;;;;;;1.10;0.47;;;12.00;79.20;;;;;;5030317;28;20041;-62
2023/12/31 11:51:56;;;;;;;0.90;0.38;;;12.00;79.10;;;;;;5028681;28;20044;-61
2023/12/31 11:54:39;;;;;;;0.50;0.50;;;11.90;79.20;;;;;;5027165;28;20135;-72
2023/12/31 11:57:13;;;;;;;0.40;0.40;;;11.90;79.30;;;;;;5038251;28;20029;-72
2023/12/31 11:59:43;;;;;;;1.20;0.77;;;11.80;79.20;;;;;;5039596;28;20021;-71
2023/12/31 12:02:09;;;;;;;0.40;0.30;;;11.70;79.30;;;;;;5059919;28;20016;-72
2023/12/31 12:04:38;;;;;;;0.50;0.30;;;11.70;79.90;;;;;;5054136;28;20110;-72
2023/12/31 12:07:04;;;;;;;2.50;0.45;;;11.90;80.70;;;;;;5053218;28;20033;-72
2023/12/31 12:09:32;;;;;;;0.77;0.45;;;12.60;78.80;;;;;;5053547;28;20374;-72
2023/12/31 12:12:02;;;;;;;1.20;0.60;;;13.60;76.60;;;;;;5052428;28;20104;-71
2023/12/31 12:14:29;;;;;;;0.45;0.40;;;13.90;74.00;;;;;;5057431;28;20498;-70
2023/12/31 12:16:55;;;;;;;3.42;0.55;;;13.70;72.20;;;;;;5049660;28;20491;-71
2023/12/31 12:19:21;;;;;;;1.55;0.95;;;13.30;72.60;;;;;;5047282;28;20021;-72
2023/12/31 12:21:48;;;;;;;0.38;0.32;;;13.00;73.70;;;;;;5039253;28;20028;-61
2023/12/31 12:24:15;;;;;;;0.65;0.65;;;12.70;74.40;;;;;;5041563;28;20026;-62
2023/12/31 12:26:42;;;;;;;0.40;0.40;;;12.40;75.40;;;;;;5043205;28;20027;-61
2023/12/31 12:29:10;;;;;;;0.82;0.73;;;12.20;76.80;;;;;;5039417;28;20060;-61
2023/12/31 12:31:36;;;;;;;0.85;0.30;;;12.10;76.90;;;;;;5046474;28;20052;-62
2023/12/31 12:34:05;;;;;;;1.55;0.98;;;12.30;76.60;;;;;;5034120;28;20602;-62
2023/12/31 12:36:32;;;;;;;0.95;0.75;;;12.30;76.40;;;;;;5043643;28;20061;-62
2023/12/31 12:39:02;;;;;;;0.63;0.60;;;12.40;76.20;;;;;;5050696;28;20025;-62
2023/12/31 12:41:34;;;;;;;1.75;0.70;;;12.50;75.90;;;;;;5049892;28;20034;-61
2023/12/31 12:44:02;;;;;;;1.35;0.82;;;12.50;75.60;;;;;;5046382;28;20128;-62
2023/12/31 12:46:31;;;;;;;1.60;0.85;;;12.50;75.60;;;;;;5050997;28;20052;-61